Time;durP1;ratioP1;P1;durP2;ratioP2;P2;SDS_P1;SDS_P2;PMS_P1;PMS_P2;Temp;Humidity;BMP_temperature;BMP_pressure;BME280_temperature;BME280_humidity;BME280_pressure;Samples;Min_cycle;Max_cycle;Signal;HPM_P1;HPM_P2
2023/12/29 00:00:06;;;;;;;22.17;4.10;;;10.50;99.90;;;;;;5072162;28;20045;-69
2023/12/29 00:02:32;;;;;;;18.70;4.10;;;10.00;99.90;;;;;;5072744;28;20385;-69
2023/12/29 00:04:57;;;;;;;22.58;5.20;;;10.50;99.90;;;;;;5072039;28;20049;-69
2023/12/29 00:07:23;;;;;;;20.00;3.88;;;10.10;99.90;;;;;;5073757;28;20055;-69
2023/12/29 00:09:48;;;;;;;27.90;4.68;;;10.50;99.90;;;;;;5073338;28;20036;-70
2023/12/29 00:12:14;;;;;;;23.88;4.88;;;10.20;99.90;;;;;;5072750;28;20056;-71
2023/12/29 00:14:40;;;;;;;34.15;4.88;;;10.20;99.90;;;;;;5074213;28;20381;-74
2023/12/29 00:17:05;;;;;;;17.08;3.55;;;10.50;99.90;;;;;;5073453;28;20036;-70
2023/12/29 00:19:31;;;;;;;21.98;4.20;;;10.80;99.90;;;;;;5074247;28;20513;-70
2023/12/29 00:21:57;;;;;;;24.08;4.10;;;10.10;99.90;;;;;;5074365;28;20044;-71
2023/12/29 00:24:22;;;;;;;21.95;3.97;;;10.00;99.90;;;;;;5072690;28;20559;-70
2023/12/29 00:26:48;;;;;;;22.73;4.25;;;10.00;99.90;;;;;;5073146;28;20183;-71
2023/12/29 00:29:15;;;;;;;30.13;5.10;;;10.00;99.90;;;;;;5083465;28;20098;-71
2023/12/29 00:31:41;;;;;;;30.20;4.68;;;10.00;99.90;;;;;;5093515;28;20047;-70
2023/12/29 00:34:07;;;;;;;22.27;4.43;;;9.90;99.90;;;;;;5075867;28;20043;-70
2023/12/29 00:36:33;;;;;;;18.48;3.63;;;9.90;99.90;;;;;;5076554;28;20044;-70
2023/12/29 00:39:01;;;;;;;17.92;3.33;;;10.20;99.90;;;;;;5075803;28;20052;-70
2023/12/29 00:41:27;;;;;;;19.25;4.20;;;9.90;99.90;;;;;;5073462;28;20036;-70
2023/12/29 00:43:52;;;;;;;19.05;3.80;;;10.30;99.90;;;;;;5073748;28;20396;-71
2023/12/29 00:46:18;;;;;;;20.60;4.10;;;9.90;99.90;;;;;;5085303;28;20062;-70
2023/12/29 00:48:43;;;;;;;19.92;4.28;;;10.00;99.90;;;;;;5092207;28;20052;-70
2023/12/29 00:51:09;;;;;;;24.40;3.90;;;9.90;99.90;;;;;;5073323;28;20052;-71
2023/12/29 00:53:35;;;;;;;22.25;3.30;;;9.90;99.90;;;;;;5087074;28;20059;-71
2023/12/29 00:56:01;;;;;;;18.88;3.90;;;10.30;99.90;;;;;;5093635;28;20047;-70
2023/12/29 00:58:26;;;;;;;20.88;3.72;;;10.00;99.90;;;;;;5093784;28;20048;-70
2023/12/29 01:00:52;;;;;;;18.00;3.78;;;10.40;99.90;;;;;;5089467;28;20471;-70
2023/12/29 01:03:18;;;;;;;17.98;3.03;;;10.00;99.90;;;;;;5093319;28;20067;-71
2023/12/29 01:05:43;;;;;;;20.48;3.30;;;10.00;99.90;;;;;;5094070;28;20399;-70
2023/12/29 01:08:09;;;;;;;24.67;3.92;;;9.80;99.90;;;;;;5082477;28;20032;-70
2023/12/29 01:10:35;;;;;;;20.40;4.15;;;9.90;99.90;;;;;;5073433;28;20074;-70
2023/12/29 01:13:00;;;;;;;22.52;3.70;;;9.90;99.90;;;;;;5106248;28;20102;-70
2023/12/29 01:15:26;;;;;;;19.00;4.10;;;10.10;99.90;;;;;;5073281;28;20040;-71
2023/12/29 01:17:51;;;;;;;25.15;4.13;;;9.90;99.90;;;;;;5073324;28;20041;-70
2023/12/29 01:20:17;;;;;;;26.30;3.90;;;10.20;99.90;;;;;;5072158;28;20060;-71
2023/12/29 01:22:43;;;;;;;19.05;3.40;;;9.90;99.90;;;;;;5073469;28;20102;-70
2023/12/29 01:25:08;;;;;;;18.25;3.60;;;10.00;99.90;;;;;;5074187;28;20060;-71
2023/12/29 01:27:34;;;;;;;20.27;3.72;;;10.00;99.90;;;;;;5072219;28;20052;-70
2023/12/29 01:30:02;;;;;;;19.20;2.65;;;10.50;99.90;;;;;;5073004;28;20084;-71
2023/12/29 01:32:28;;;;;;;20.45;3.47;;;10.00;99.90;;;;;;5073174;28;20080;-70
2023/12/29 01:34:53;;;;;;;18.67;3.90;;;10.20;99.90;;;;;;5072284;28;20488;-70
2023/12/29 01:37:19;;;;;;;21.20;4.03;;;10.30;99.90;;;;;;5072962;28;20051;-71
2023/12/29 01:39:45;;;;;;;21.60;3.83;;;10.10;99.90;;;;;;5073133;28;20503;-70
2023/12/29 01:42:13;;;;;;;19.00;3.78;;;10.10;99.90;;;;;;5071944;28;20109;-70
2023/12/29 01:44:38;;;;;;;19.80;3.20;;;10.30;99.90;;;;;;5073157;28;20141;-70
2023/12/29 01:47:16;;;;;;;15.73;3.60;;;10.00;99.90;;;;;;5071821;28;20088;-70
2023/12/29 01:49:44;;;;;;;19.15;3.30;;;10.00;99.90;;;;;;5071640;28;20053;-71
2023/12/29 01:52:10;;;;;;;23.67;3.80;;;9.90;99.90;;;;;;5072380;28;20100;-71
2023/12/29 01:54:42;;;;;;;17.38;4.30;;;9.90;99.90;;;;;;5072265;28;20044;-71
2023/12/29 01:57:08;;;;;;;21.92;3.50;;;9.80;99.90;;;;;;5071385;28;20048;-70
2023/12/29 01:59:35;;;;;;;21.52;3.25;;;10.00;99.90;;;;;;5072682;28;20473;-70
2023/12/29 02:02:02;;;;;;;18.10;3.33;;;9.70;99.90;;;;;;5071946;28;20131;-71
2023/12/29 02:04:28;;;;;;;17.17;3.20;;;9.70;99.90;;;;;;5071515;28;20048;-70
2023/12/29 02:06:54;;;;;;;23.70;4.43;;;9.70;99.90;;;;;;5072465;28;20393;-71
2023/12/29 02:09:20;;;;;;;20.73;3.50;;;10.30;99.90;;;;;;5071358;28;20554;-71
2023/12/29 02:11:46;;;;;;;18.38;3.47;;;9.80;99.90;;;;;;5071828;28;20044;-71
2023/12/29 02:14:14;;;;;;;28.38;4.45;;;9.50;99.90;;;;;;5071873;28;20063;-70
2023/12/29 02:16:51;;;;;;;23.98;4.60;;;9.50;99.90;;;;;;5071179;28;20084;-71
2023/12/29 02:19:39;;;;;;;25.83;4.55;;;9.40;99.90;;;;;;5105908;28;20435;-71
2023/12/29 02:22:05;;;;;;;21.45;4.28;;;9.40;99.90;;;;;;5071941;28;20055;-70
2023/12/29 02:24:32;;;;;;;23.55;4.00;;;9.50;99.90;;;;;;5071334;28;20127;-70
2023/12/29 02:27:23;;;;;;;27.30;4.82;;;9.50;99.90;;;;;;5072175;28;20059;-70
2023/12/29 02:29:59;;;;;;;21.50;4.55;;;9.60;99.90;;;;;;5071860;28;20361;-71
2023/12/29 02:32:27;;;;;;;23.70;4.43;;;9.60;99.90;;;;;;5071240;28;20399;-71
2023/12/29 02:34:53;;;;;;;22.40;4.22;;;9.60;99.90;;;;;;5072108;28;20040;-71
2023/12/29 02:37:20;;;;;;;24.75;4.13;;;9.60;99.90;;;;;;5071546;28;20090;-70
2023/12/29 02:39:46;;;;;;;25.20;4.68;;;9.90;99.90;;;;;;5071986;28;20036;-71
2023/12/29 02:42:11;;;;;;;23.20;4.20;;;10.00;99.90;;;;;;5071624;28;20048;-71
2023/12/29 02:44:37;;;;;;;25.65;4.32;;;9.70;99.90;;;;;;5071132;28;20037;-70
2023/12/29 02:47:03;;;;;;;18.27;3.88;;;9.80;99.90;;;;;;5105112;28;20049;-70
2023/12/29 02:49:29;;;;;;;27.73;4.38;;;9.70;99.90;;;;;;5071943;28;20392;-70
2023/12/29 02:51:55;;;;;;;31.95;4.68;;;9.90;99.90;;;;;;5070845;28;20047;-70
2023/12/29 02:54:20;;;;;;;18.88;3.58;;;9.70;99.90;;;;;;5071553;28;20124;-70
2023/12/29 02:56:49;;;;;;;22.17;4.20;;;9.60;99.90;;;;;;5071165;28;20533;-70
2023/12/29 02:59:14;;;;;;;25.40;4.68;;;10.00;99.90;;;;;;5070615;28;20510;-70
2023/12/29 03:01:40;;;;;;;21.15;3.85;;;9.50;99.90;;;;;;5071457;28;20045;-70
2023/12/29 03:04:09;;;;;;;23.27;4.00;;;9.50;99.90;;;;;;5071117;28;20037;-70
2023/12/29 03:06:34;;;;;;;27.42;4.35;;;9.70;99.90;;;;;;5069444;28;20445;-70
2023/12/29 03:09:00;;;;;;;33.53;3.92;;;9.50;99.90;;;;;;5071169;28;20041;-70
2023/12/29 03:11:25;;;;;;;18.60;3.72;;;9.60;99.90;;;;;;5071209;28;20088;-70
2023/12/29 03:13:51;;;;;;;22.40;4.10;;;9.60;99.90;;;;;;5070275;28;20381;-70
2023/12/29 03:16:17;;;;;;;20.23;4.28;;;9.60;99.90;;;;;;5104277;28;20049;-71
2023/12/29 03:18:42;;;;;;;22.27;4.25;;;9.60;99.90;;;;;;5071376;28;20049;-71
2023/12/29 03:21:08;;;;;;;22.35;4.15;;;9.80;99.90;;;;;;5070121;28;20185;-70
2023/12/29 03:23:34;;;;;;;17.58;3.10;;;9.70;99.90;;;;;;5054392;28;20051;-71
2023/12/29 03:26:00;;;;;;;19.83;4.20;;;9.60;99.90;;;;;;5098056;28;20045;-70
2023/12/29 03:28:25;;;;;;;16.10;3.88;;;9.60;99.90;;;;;;5051400;28;20048;-70
2023/12/29 03:30:51;;;;;;;22.10;4.10;;;9.60;99.90;;;;;;5050884;28;20409;-70
2023/12/29 03:33:16;;;;;;;20.13;3.60;;;9.60;99.90;;;;;;5084601;28;20052;-70
2023/12/29 03:35:42;;;;;;;19.30;3.50;;;9.50;99.90;;;;;;5084094;28;20132;-70
2023/12/29 03:38:10;;;;;;;21.75;4.20;;;10.00;99.90;;;;;;5084129;28;20033;-70
2023/12/29 03:40:36;;;;;;;20.15;4.00;;;9.40;99.90;;;;;;5052727;28;20041;-70
2023/12/29 03:43:01;;;;;;;19.42;4.90;;;9.50;99.90;;;;;;5055642;28;20044;-70
2023/12/29 03:45:27;;;;;;;20.58;3.60;;;9.40;99.90;;;;;;5071048;28;20048;-70
2023/12/29 03:47:53;;;;;;;23.23;4.28;;;9.50;99.90;;;;;;5070338;28;20075;-70
2023/12/29 03:50:18;;;;;;;20.25;4.35;;;9.80;99.90;;;;;;5070676;28;20045;-70
2023/12/29 03:52:44;;;;;;;21.08;3.72;;;9.50;99.90;;;;;;5070907;28;20045;-70
2023/12/29 03:55:10;;;;;;;20.10;4.45;;;9.70;99.90;;;;;;5069963;28;20051;-70
2023/12/29 03:57:36;;;;;;;17.33;3.65;;;9.80;99.90;;;;;;5070708;28;20052;-71
2023/12/29 04:00:04;;;;;;;15.80;3.67;;;9.30;99.90;;;;;;5071179;28;20044;-70
2023/12/29 04:02:29;;;;;;;19.85;3.97;;;9.40;99.90;;;;;;5070252;28;20064;-70
2023/12/29 04:04:57;;;;;;;23.55;4.97;;;10.00;99.90;;;;;;5070496;28;20041;-70
2023/12/29 04:07:23;;;;;;;18.35;4.13;;;9.30;99.90;;;;;;5070588;28;20052;-70
2023/12/29 04:09:49;;;;;;;19.10;3.42;;;9.40;99.90;;;;;;5070252;28;20040;-71
2023/12/29 04:12:14;;;;;;;18.48;4.97;;;9.40;99.90;;;;;;5070410;28;20048;-71
2023/12/29 04:14:40;;;;;;;16.00;3.70;;;9.40;99.90;;;;;;5070273;28;20049;-71
2023/12/29 04:17:13;;;;;;;17.42;3.63;;;9.40;99.90;;;;;;5070960;28;20086;-70
2023/12/29 04:19:40;;;;;;;23.92;3.60;;;9.80;99.90;;;;;;5074668;28;20462;-71
2023/12/29 04:22:07;;;;;;;17.75;2.97;;;9.80;99.90;;;;;;5074123;28;20048;-71
2023/12/29 04:24:32;;;;;;;25.40;4.72;;;9.20;99.90;;;;;;5073606;28;20047;-70
2023/12/29 04:26:58;;;;;;;20.10;4.35;;;9.30;99.90;;;;;;5074386;28;20048;-70
2023/12/29 04:29:23;;;;;;;13.43;2.90;;;9.40;99.90;;;;;;5074258;28;20032;-70
2023/12/29 04:31:49;;;;;;;17.95;3.28;;;9.30;99.90;;;;;;5073430;28;20127;-70
2023/12/29 04:34:15;;;;;;;29.55;4.60;;;9.50;99.90;;;;;;5073675;28;20041;-70
2023/12/29 04:36:41;;;;;;;21.08;3.78;;;9.40;99.90;;;;;;5074313;28;20384;-70
2023/12/29 04:39:09;;;;;;;23.08;4.15;;;9.30;99.90;;;;;;5072998;28;20045;-70
2023/12/29 04:41:34;;;;;;;15.52;3.05;;;9.30;99.90;;;;;;5074025;28;20503;-70
2023/12/29 04:44:00;;;;;;;22.63;3.85;;;9.30;99.90;;;;;;5073107;28;20053;-70
2023/12/29 04:46:26;;;;;;;21.50;4.22;;;9.30;99.90;;;;;;5073427;28;20049;-70
2023/12/29 04:48:51;;;;;;;16.88;3.78;;;9.30;99.90;;;;;;5073965;28;20119;-70
2023/12/29 04:51:17;;;;;;;17.80;3.28;;;9.30;99.90;;;;;;5072922;28;20127;-70
2023/12/29 04:53:42;;;;;;;29.48;4.47;;;9.30;99.90;;;;;;5073991;28;20048;-70
2023/12/29 04:56:08;;;;;;;24.00;4.20;;;9.50;99.90;;;;;;5073735;28;20048;-70
2023/12/29 04:58:34;;;;;;;22.10;3.95;;;9.30;99.90;;;;;;5073215;28;20052;-70
2023/12/29 05:01:00;;;;;;;18.70;3.47;;;9.30;99.90;;;;;;5073458;28;20574;-70
2023/12/29 05:03:25;;;;;;;20.15;3.90;;;9.30;99.90;;;;;;5073941;28;20037;-70
2023/12/29 05:05:51;;;;;;;39.28;4.57;;;9.90;99.90;;;;;;5073938;28;20041;-70
2023/12/29 05:08:16;;;;;;;24.33;4.93;;;10.00;99.90;;;;;;5072967;28;20033;-70
2023/12/29 05:10:42;;;;;;;18.88;3.75;;;9.30;99.90;;;;;;5073214;28;20044;-70
2023/12/29 05:13:08;;;;;;;24.10;4.68;;;9.50;99.90;;;;;;5072494;28;20127;-70
2023/12/29 05:15:33;;;;;;;11.77;3.00;;;10.10;99.90;;;;;;5073638;28;20052;-71
2023/12/29 05:17:59;;;;;;;26.00;4.72;;;9.50;99.90;;;;;;5072496;28;20132;-72
2023/12/29 05:20:28;;;;;;;19.45;3.80;;;9.40;99.90;;;;;;5073655;28;20067;-71
2023/12/29 05:22:53;;;;;;;27.30;5.05;;;9.50;99.90;;;;;;5073607;28;20049;-71
2023/12/29 05:25:21;;;;;;;29.40;4.60;;;9.50;99.90;;;;;;5073148;28;20101;-71
2023/12/29 05:27:47;;;;;;;22.98;4.68;;;9.40;99.90;;;;;;5072212;28;20051;-71
2023/12/29 05:30:13;;;;;;;27.85;5.28;;;9.60;99.90;;;;;;5071576;28;20045;-71
2023/12/29 05:32:39;;;;;;;16.10;3.50;;;9.40;99.90;;;;;;5073175;28;20052;-71
2023/12/29 05:35:05;;;;;;;20.98;4.85;;;9.40;99.90;;;;;;5072079;28;20039;-71
2023/12/29 05:37:30;;;;;;;26.80;5.55;;;9.40;99.90;;;;;;5072421;28;20048;-71
2023/12/29 05:39:56;;;;;;;25.77;4.13;;;9.40;99.90;;;;;;5072749;28;20044;-71
2023/12/29 05:42:22;;;;;;;21.45;4.10;;;9.40;99.90;;;;;;5071543;28;20049;-71
2023/12/29 05:44:47;;;;;;;17.45;4.00;;;9.40;99.90;;;;;;5072810;28;20041;-71
2023/12/29 05:47:13;;;;;;;20.95;3.80;;;9.40;99.90;;;;;;5072437;28;20407;-71
2023/12/29 05:49:39;;;;;;;18.75;2.95;;;9.30;99.90;;;;;;5072354;28;20044;-71
2023/12/29 05:52:06;;;;;;;20.40;4.80;;;9.30;99.90;;;;;;5071890;28;20071;-71
2023/12/29 05:54:31;;;;;;;25.27;4.55;;;9.40;99.90;;;;;;5071778;28;20101;-71
2023/12/29 05:56:58;;;;;;;20.38;4.78;;;9.40;99.90;;;;;;5072438;28;20052;-71
2023/12/29 05:59:24;;;;;;;20.38;4.10;;;9.40;99.90;;;;;;5072439;28;20511;-71
2023/12/29 06:01:50;;;;;;;18.60;3.80;;;9.40;99.90;;;;;;5071691;28;20076;-71
2023/12/29 06:04:24;;;;;;;24.52;4.30;;;9.60;99.90;;;;;;5072060;28;20033;-71
2023/12/29 06:06:56;;;;;;;17.65;3.85;;;9.50;99.90;;;;;;5072205;28;20044;-71
2023/12/29 06:09:22;;;;;;;18.88;3.92;;;9.60;99.90;;;;;;5070507;28;20044;-71
2023/12/29 06:11:47;;;;;;;24.55;4.32;;;9.50;99.90;;;;;;5072013;28;20506;-71
2023/12/29 06:14:13;;;;;;;18.98;3.80;;;9.50;99.90;;;;;;5073132;28;20039;-72
2023/12/29 06:16:39;;;;;;;24.02;4.25;;;9.60;99.90;;;;;;5071263;28;20102;-71
2023/12/29 06:19:04;;;;;;;19.25;4.22;;;9.60;99.90;;;;;;5071391;28;20032;-71
2023/12/29 06:21:30;;;;;;;23.10;3.95;;;9.70;99.90;;;;;;5072000;28;20147;-71
2023/12/29 06:23:56;;;;;;;19.67;4.25;;;9.60;99.90;;;;;;5071542;28;20044;-71
2023/12/29 06:26:22;;;;;;;24.05;4.43;;;9.90;99.90;;;;;;5071156;28;20055;-71
2023/12/29 06:28:48;;;;;;;22.25;4.75;;;9.60;99.90;;;;;;5072068;28;20045;-71
2023/12/29 06:31:14;;;;;;;18.48;3.83;;;9.50;99.90;;;;;;5070617;28;20127;-71
2023/12/29 06:33:43;;;;;;;21.25;3.42;;;9.70;99.90;;;;;;5071641;28;20051;-71
2023/12/29 06:36:13;;;;;;;21.60;3.95;;;9.70;99.90;;;;;;5071613;28;20113;-72
2023/12/29 06:38:39;;;;;;;27.95;4.60;;;9.60;99.90;;;;;;5071315;28;20044;-71
2023/12/29 06:41:05;;;;;;;20.17;4.25;;;9.50;99.90;;;;;;5071548;28;20049;-71
2023/12/29 06:43:30;;;;;;;26.50;4.65;;;9.60;99.90;;;;;;5071776;28;20166;-71
2023/12/29 06:45:56;;;;;;;28.05;4.57;;;9.70;99.90;;;;;;5069976;28;20082;-71
2023/12/29 06:48:22;;;;;;;21.40;3.53;;;9.60;99.90;;;;;;5096063;28;20036;-71
2023/12/29 06:50:48;;;;;;;20.52;3.78;;;9.60;99.90;;;;;;5070324;28;20048;-71
2023/12/29 06:53:14;;;;;;;24.13;4.55;;;9.70;99.90;;;;;;5070939;28;20536;-72
2023/12/29 06:55:40;;;;;;;23.00;4.38;;;9.60;99.90;;;;;;5071092;28;20060;-71
2023/12/29 06:58:05;;;;;;;25.63;5.13;;;9.50;99.90;;;;;;5069594;28;20400;-71
2023/12/29 07:00:31;;;;;;;21.98;4.20;;;9.60;99.90;;;;;;5071350;28;20049;-71
2023/12/29 07:02:57;;;;;;;19.58;3.83;;;9.50;99.90;;;;;;5071471;28;20114;-71
2023/12/29 07:05:22;;;;;;;27.85;4.63;;;9.60;99.90;;;;;;5070577;28;20083;-71
2023/12/29 07:07:48;;;;;;;30.95;5.03;;;9.50;99.90;;;;;;5071479;28;20400;-71
2023/12/29 07:10:16;;;;;;;22.05;4.35;;;9.60;99.90;;;;;;5070904;28;20071;-71
2023/12/29 07:12:42;;;;;;;20.70;4.55;;;9.60;99.90;;;;;;5070845;28;20369;-71
2023/12/29 07:15:08;;;;;;;21.17;4.25;;;9.60;99.90;;;;;;5070925;28;20052;-71
2023/12/29 07:17:34;;;;;;;23.23;4.72;;;9.50;99.90;;;;;;5071306;28;20074;-71
2023/12/29 07:20:00;;;;;;;18.35;4.22;;;9.50;99.90;;;;;;5070518;28;20049;-71
2023/12/29 07:22:26;;;;;;;22.60;4.13;;;9.50;99.90;;;;;;5071337;28;20044;-71
2023/12/29 07:24:52;;;;;;;23.65;4.90;;;9.60;99.90;;;;;;5071326;28;20041;-71
2023/12/29 07:27:17;;;;;;;26.38;4.80;;;9.50;99.90;;;;;;5071324;28;20115;-72
2023/12/29 07:29:43;;;;;;;21.85;4.68;;;9.60;99.90;;;;;;5072817;28;20133;-71
2023/12/29 07:32:09;;;;;;;25.65;5.18;;;9.50;99.90;;;;;;5070767;28;20045;-71
2023/12/29 07:34:34;;;;;;;23.58;4.75;;;9.50;99.90;;;;;;5070427;28;20075;-71
2023/12/29 07:37:00;;;;;;;25.95;4.38;;;9.60;99.90;;;;;;5070564;28;20045;-71
2023/12/29 07:39:26;;;;;;;19.13;3.72;;;9.50;99.90;;;;;;5071341;28;20032;-71
2023/12/29 07:41:51;;;;;;;19.50;4.22;;;9.50;99.90;;;;;;5071486;28;20091;-71
2023/12/29 07:44:17;;;;;;;21.48;3.90;;;9.40;99.90;;;;;;5070710;28;20047;-72
2023/12/29 07:46:46;;;;;;;18.92;4.30;;;9.40;99.90;;;;;;5070879;28;20492;-71
2023/12/29 07:49:12;;;;;;;27.27;4.68;;;9.40;99.90;;;;;;5069740;28;20056;-71
2023/12/29 07:51:42;;;;;;;22.77;3.75;;;9.40;99.90;;;;;;5070722;28;20049;-71
2023/12/29 07:54:08;;;;;;;20.60;4.95;;;9.50;99.90;;;;;;5074184;28;20044;-71
2023/12/29 07:56:34;;;;;;;21.42;3.65;;;9.50;99.90;;;;;;5074986;28;20492;-70
2023/12/29 07:59:00;;;;;;;20.70;3.55;;;9.80;99.90;;;;;;5074793;28;20106;-71
2023/12/29 08:01:26;;;;;;;14.85;3.55;;;9.50;99.90;;;;;;5073736;28;20052;-71
2023/12/29 08:03:52;;;;;;;22.83;3.58;;;9.50;99.90;;;;;;5074282;28;20472;-71
2023/12/29 08:06:18;;;;;;;16.88;3.60;;;9.50;99.90;;;;;;5074611;28;20384;-71
2023/12/29 08:08:43;;;;;;;18.60;3.60;;;9.40;99.90;;;;;;5073843;28;20032;-72
2023/12/29 08:11:16;;;;;;;18.13;3.78;;;9.50;99.90;;;;;;5074198;28;20044;-71
2023/12/29 08:13:47;;;;;;;13.90;3.03;;;9.40;99.90;;;;;;5074253;28;20040;-71
2023/12/29 08:16:13;;;;;;;20.90;3.75;;;9.50;99.90;;;;;;5073684;28;20530;-71
2023/12/29 08:18:39;;;;;;;20.27;4.43;;;9.70;99.90;;;;;;5073970;28;20044;-71
2023/12/29 08:21:04;;;;;;;14.45;3.80;;;9.50;99.90;;;;;;5073823;28;20085;-70
2023/12/29 08:23:33;;;;;;;26.38;5.50;;;9.50;99.90;;;;;;5073802;28;20519;-70
2023/12/29 08:25:58;;;;;;;15.55;3.63;;;9.40;99.90;;;;;;5073719;28;20044;-72
2023/12/29 08:28:24;;;;;;;22.77;5.22;;;9.40;99.90;;;;;;5074376;28;20040;-71
2023/12/29 08:30:50;;;;;;;24.48;3.70;;;9.40;99.90;;;;;;5073480;28;20056;-72
2023/12/29 08:33:18;;;;;;;18.52;3.88;;;9.40;99.90;;;;;;5073226;28;20495;-72
2023/12/29 08:35:45;;;;;;;13.35;3.05;;;9.40;99.90;;;;;;5073832;28;20052;-71
2023/12/29 08:38:14;;;;;;;14.02;3.25;;;9.90;99.90;;;;;;5073132;28;20052;-71
2023/12/29 08:40:41;;;;;;;12.90;2.42;;;8.90;99.90;;;;;;5074427;28;20048;-69
2023/12/29 08:43:07;;;;;;;21.88;3.15;;;9.60;99.90;;;;;;5073327;28;20048;-71
2023/12/29 08:45:36;;;;;;;14.43;2.83;;;9.20;99.90;;;;;;5074245;28;20040;-72
2023/12/29 08:48:02;;;;;;;17.48;3.40;;;9.10;99.90;;;;;;5072688;28;20502;-75
2023/12/29 08:50:29;;;;;;;19.20;3.38;;;9.20;99.90;;;;;;5073354;28;20040;-79
2023/12/29 08:52:55;;;;;;;19.30;3.45;;;9.30;99.90;;;;;;5073278;28;20048;-76
2023/12/29 08:55:23;;;;;;;17.58;3.65;;;9.20;99.90;;;;;;5093680;28;20045;-74
2023/12/29 08:57:49;;;;;;;20.27;3.30;;;9.30;99.90;;;;;;5071676;28;20043;-71
2023/12/29 09:00:17;;;;;;;18.25;3.70;;;9.40;99.90;;;;;;5073063;28;20040;-71
2023/12/29 09:02:43;;;;;;;15.48;2.97;;;9.40;99.90;;;;;;5072001;28;20399;-71
2023/12/29 09:05:09;;;;;;;17.23;2.47;;;9.60;99.90;;;;;;5071006;28;20045;-70
2023/12/29 09:07:34;;;;;;;18.27;3.20;;;9.50;99.90;;;;;;5073422;28;20043;-71
2023/12/29 09:10:02;;;;;;;25.13;4.15;;;10.20;99.90;;;;;;5071577;28;20454;-70
2023/12/29 09:12:28;;;;;;;17.52;3.63;;;9.60;99.90;;;;;;5070879;28;20502;-70
2023/12/29 09:14:53;;;;;;;21.10;4.13;;;9.60;99.90;;;;;;5071178;28;20036;-71
2023/12/29 09:17:19;;;;;;;19.67;3.58;;;9.60;99.90;;;;;;5069723;28;20044;-70
2023/12/29 09:19:44;;;;;;;17.02;4.28;;;9.70;99.90;;;;;;5069004;28;20037;-70
2023/12/29 09:22:10;;;;;;;21.35;3.47;;;9.90;99.90;;;;;;5069272;28;20064;-71
2023/12/29 09:24:36;;;;;;;15.60;3.40;;;9.70;99.90;;;;;;5069388;28;20094;-71
2023/12/29 09:27:04;;;;;;;18.92;3.92;;;9.60;99.90;;;;;;5068683;28;20036;-71
2023/12/29 09:29:30;;;;;;;18.00;3.10;;;9.70;99.90;;;;;;5071075;28;20059;-71
2023/12/29 09:31:56;;;;;;;13.57;3.10;;;9.70;99.90;;;;;;5071504;28;20044;-71
2023/12/29 09:34:22;;;;;;;18.10;3.13;;;9.60;99.90;;;;;;5070405;28;20460;-71
2023/12/29 09:36:48;;;;;;;20.73;3.75;;;9.60;99.90;;;;;;5071876;28;20036;-71
2023/12/29 09:39:13;;;;;;;11.23;3.33;;;9.60;99.90;;;;;;5071122;28;20534;-70
2023/12/29 09:41:45;;;;;;;19.85;3.78;;;9.60;99.90;;;;;;5070485;28;20044;-70
2023/12/29 09:44:14;;;;;;;22.15;3.38;;;9.70;99.90;;;;;;5069401;28;20036;-71
2023/12/29 09:46:41;;;;;;;16.88;3.00;;;9.90;99.90;;;;;;5070200;28;20102;-71
2023/12/29 09:49:08;;;;;;;16.58;3.08;;;9.70;99.90;;;;;;5071426;28;20048;-71
2023/12/29 09:51:35;;;;;;;16.15;2.95;;;9.50;99.90;;;;;;5104520;28;20568;-70
2023/12/29 09:54:02;;;;;;;14.13;3.47;;;9.60;99.90;;;;;;5070067;28;20499;-70
2023/12/29 09:56:28;;;;;;;23.23;3.55;;;9.60;99.90;;;;;;5071274;28;20052;-70
2023/12/29 09:58:56;;;;;;;22.70;3.70;;;9.60;99.90;;;;;;5071470;28;20469;-71
2023/12/29 10:01:23;;;;;;;21.23;4.10;;;9.70;99.90;;;;;;5069887;28;20044;-71
2023/12/29 10:03:49;;;;;;;20.95;3.17;;;9.70;99.90;;;;;;5071214;28;20134;-70
2023/12/29 10:06:19;;;;;;;14.38;2.95;;;9.80;99.90;;;;;;5070376;28;20075;-69
2023/12/29 10:08:47;;;;;;;16.98;3.30;;;9.70;99.90;;;;;;5071298;28;20051;-70
2023/12/29 10:11:17;;;;;;;14.65;3.08;;;9.70;99.90;;;;;;5071743;28;20049;-70
2023/12/29 10:13:46;;;;;;;15.77;3.47;;;9.80;99.90;;;;;;5072046;28;20051;-70
2023/12/29 10:16:35;;;;;;;15.73;2.97;;;10.00;99.90;;;;;;5070810;28;20503;-71
2023/12/29 10:19:08;;;;;;;18.55;3.10;;;10.50;99.90;;;;;;5095291;28;20146;-70
2023/12/29 10:21:52;;;;;;;12.57;3.42;;;10.20;99.90;;;;;;5071777;28;20517;-70
2023/12/29 10:24:22;;;;;;;11.65;3.15;;;10.80;99.90;;;;;;5071107;28;20064;-70
2023/12/29 10:26:48;;;;;;;13.90;2.35;;;10.80;99.90;;;;;;5071622;28;20395;-71
2023/12/29 10:29:14;;;;;;;16.38;2.90;;;10.70;99.90;;;;;;5070143;28;20060;-71
2023/12/29 10:31:39;;;;;;;17.92;2.65;;;10.90;99.90;;;;;;5071314;28;20483;-71
2023/12/29 10:34:31;;;;;;;12.65;2.55;;;11.20;99.90;;;;;;5070926;28;20064;-71
2023/12/29 10:37:09;;;;;;;12.98;2.72;;;11.60;99.90;;;;;;5070507;28;20048;-70
2023/12/29 10:39:37;;;;;;;12.10;2.72;;;12.10;99.90;;;;;;5071804;28;20067;-70
2023/12/29 10:42:08;;;;;;;14.18;3.17;;;12.30;99.90;;;;;;5071425;28;20047;-70
2023/12/29 10:44:35;;;;;;;8.57;2.47;;;12.60;99.90;;;;;;5070449;28;20072;-69
2023/12/29 10:47:13;;;;;;;14.73;3.13;;;12.20;99.90;;;;;;5070806;28;20495;-70
2023/12/29 10:49:42;;;;;;;15.20;3.30;;;11.70;99.90;;;;;;5071476;28;20044;-69
2023/12/29 10:52:13;;;;;;;11.23;2.83;;;11.60;99.90;;;;;;5070313;28;20119;-69
2023/12/29 10:54:38;;;;;;;13.65;2.83;;;11.70;99.90;;;;;;5071501;28;20037;-70
2023/12/29 10:57:04;;;;;;;11.32;2.90;;;11.60;99.90;;;;;;5069826;28;20056;-71
2023/12/29 10:59:30;;;;;;;9.07;2.90;;;11.80;99.90;;;;;;5069204;28;20037;-71
2023/12/29 11:01:55;;;;;;;11.35;2.17;;;11.90;99.90;;;;;;5071089;28;20048;-71
2023/12/29 11:04:24;;;;;;;10.00;2.50;;;12.00;99.90;;;;;;5068454;28;20058;-71
2023/12/29 11:06:51;;;;;;;13.45;2.55;;;12.50;99.90;;;;;;5069773;28;20044;-71
2023/12/29 11:09:30;;;;;;;16.70;3.40;;;12.70;99.90;;;;;;5065644;28;20047;-71
2023/12/29 11:11:59;;;;;;;11.43;2.55;;;13.30;99.90;;;;;;5069303;28;20052;-71
2023/12/29 11:14:25;;;;;;;12.05;2.42;;;13.80;99.90;;;;;;5069241;28;20044;-70
2023/12/29 11:17:00;;;;;;;11.15;2.60;;;13.90;99.90;;;;;;5070066;28;20052;-70
2023/12/29 11:19:26;;;;;;;17.52;2.70;;;14.30;99.90;;;;;;5069012;28;20082;-70
2023/12/29 11:21:54;;;;;;;12.18;2.65;;;14.10;99.90;;;;;;5069880;28;20432;-69
2023/12/29 11:24:20;;;;;;;12.65;2.92;;;14.20;99.90;;;;;;5065388;28;20087;-70
2023/12/29 11:26:48;;;;;;;16.27;3.30;;;14.40;99.90;;;;;;5068722;28;20048;-70
2023/12/29 11:29:16;;;;;;;12.25;2.80;;;14.70;99.90;;;;;;5068844;28;20045;-71
2023/12/29 11:31:42;;;;;;;12.88;3.15;;;15.00;99.90;;;;;;5068431;28;20041;-71
2023/12/29 11:34:25;;;;;;;13.55;2.63;;;15.20;99.90;;;;;;5068363;28;20044;-71
2023/12/29 11:37:00;;;;;;;13.27;3.47;;;15.20;99.90;;;;;;5097814;28;20408;-70
2023/12/29 11:39:40;;;;;;;14.30;3.25;;;15.60;99.90;;;;;;5069469;28;20048;-75
2023/12/29 11:42:21;;;;;;;13.05;2.65;;;15.50;99.90;;;;;;5068227;28;20067;-73
2023/12/29 11:44:48;;;;;;;9.07;2.17;;;15.50;99.10;;;;;;5090544;28;20487;-72
2023/12/29 11:47:36;;;;;;;10.77;2.60;;;15.50;99.20;;;;;;5067817;28;20131;-71
2023/12/29 11:50:03;;;;;;;13.02;3.17;;;16.20;98.20;;;;;;5069056;28;20090;-77
2023/12/29 11:52:39;;;;;;;12.80;2.60;;;15.80;98.90;;;;;;5071241;28;20068;-71
2023/12/29 11:55:09;;;;;;;10.23;3.08;;;16.30;98.50;;;;;;5068679;28;20033;-74
2023/12/29 11:57:36;;;;;;;11.75;2.45;;;16.40;99.20;;;;;;5070065;28;20047;-72
2023/12/29 12:00:05;;;;;;;11.93;3.00;;;16.30;97.70;;;;;;5069661;28;20392;-73
2023/12/29 12:02:31;;;;;;;13.02;2.42;;;16.20;98.10;;;;;;5070431;28;20049;-74
2023/12/29 12:04:57;;;;;;;12.07;2.65;;;15.60;98.40;;;;;;5070409;28;20496;-72
2023/12/29 12:07:23;;;;;;;8.68;2.13;;;14.10;99.80;;;;;;5070811;28;20040;-70
2023/12/29 12:09:53;;;;;;;10.02;2.55;;;13.70;99.90;;;;;;5070517;28;20044;-72
2023/12/29 12:12:42;;;;;;;6.65;1.90;;;13.40;99.90;;;;;;5070571;28;20055;-71
2023/12/29 12:15:27;;;;;;;12.23;2.72;;;13.20;99.90;;;;;;5103333;28;20048;-72
2023/12/29 12:17:53;;;;;;;14.77;3.33;;;13.30;99.90;;;;;;5070604;28;20094;-71
2023/12/29 12:20:19;;;;;;;20.15;3.45;;;13.00;99.90;;;;;;5070376;28;20448;-79
2023/12/29 12:22:50;;;;;;;15.52;4.07;;;12.60;99.90;;;;;;5070082;28;20080;-76
2023/12/29 12:25:16;;;;;;;13.95;3.25;;;11.80;99.90;;;;;;5070103;28;20037;-72
2023/12/29 12:27:42;;;;;;;13.93;3.95;;;11.20;99.90;;;;;;5071784;28;20511;-71
2023/12/29 12:30:09;;;;;;;18.45;4.28;;;10.80;99.90;;;;;;5070669;28;20032;-72
2023/12/29 12:32:35;;;;;;;17.65;4.85;;;10.70;99.90;;;;;;5070818;28;20066;-69
2023/12/29 12:35:01;;;;;;;22.98;7.20;;;10.40;99.90;;;;;;5070470;28;20044;-69
2023/12/29 12:37:29;;;;;;;14.20;3.72;;;10.20;99.90;;;;;;5069697;28;20394;-73
2023/12/29 12:39:55;;;;;;;13.93;3.40;;;10.00;99.90;;;;;;5072947;28;20114;-74
2023/12/29 12:42:24;;;;;;;15.88;3.25;;;10.10;99.90;;;;;;5072547;28;20404;-74